Time;durP1;ratioP1;P1;durP2;ratioP2;P2;SDS_P1;SDS_P2;PMS_P1;PMS_P2;Temp;Humidity;BMP_temperature;BMP_pressure;BME280_temperature;BME280_humidity;BME280_pressure;Samples;Min_cycle;Max_cycle;Signal;HPM_P1;HPM_P2
2022/03/28 00:00:40;;;;;;;26.98;19.73;;;308.00;1740.80;;;;;;5094143;28;20505;-65
2022/03/28 00:03:06;;;;;;;61.53;55.20;;;332.90;1740.80;;;;;;5093930;28;20024;-68
2022/03/28 00:05:32;;;;;;;39.33;26.88;;;333.20;1715.20;;;;;;5093612;28;20069;-66
2022/03/28 00:07:58;;;;;;;36.47;25.80;;;333.30;1894.40;;;;;;5093100;28;20032;-70
2022/03/28 00:10:24;;;;;;;44.13;35.58;;;333.40;1689.60;;;;;;5093686;28;20016;-69
2022/03/28 00:12:51;;;;;;;30.75;23.83;;;;;;;;;;5093752;28;20470;-66
2022/03/28 00:15:16;;;;;;;41.15;27.20;;;333.20;1689.60;;;;;;5093832;28;20032;-71
2022/03/28 00:17:42;;;;;;;29.85;22.02;;;333.10;1715.20;;;;;;5093908;28;20382;-66
2022/03/28 00:20:11;;;;;;;36.13;25.85;;;333.20;1689.60;;;;;;5093471;28;20035;-65
2022/03/28 00:22:38;;;;;;;28.52;19.30;;;333.00;1715.20;;;;;;5093737;28;20145;-69
2022/03/28 00:25:06;;;;;;;24.40;18.52;;;333.10;1715.20;;;;;;5093639;28;20024;-66
2022/03/28 00:27:32;;;;;;;20.50;14.88;;;333.20;1715.20;;;;;;5093538;28;20047;-65
2022/03/28 00:29:57;;;;;;;22.88;15.57;;;332.90;1740.80;;;;;;5093693;28;20024;-65
2022/03/28 00:32:24;;;;;;;22.65;17.33;;;;;;;;;;5093923;28;20032;-65
2022/03/28 00:34:50;;;;;;;24.27;16.63;;;;;;;;;;5093226;28;20047;-65
2022/03/28 00:37:16;;;;;;;22.33;16.55;;;;;;;;;;5093055;28;20064;-64
2022/03/28 00:39:42;;;;;;;27.65;18.08;;;;;;;;;;5092958;28;20028;-64
2022/03/28 00:42:08;;;;;;;26.85;17.85;;;;;;;;;;5092967;28;20031;-64
2022/03/28 00:44:34;;;;;;;21.83;17.10;;;;;;;;;;5092875;28;20073;-65
2022/03/28 00:47:00;;;;;;;20.00;14.70;;;333.00;1715.20;;;;;;5092811;28;20359;-66
2022/03/28 00:49:27;;;;;;;22.90;15.18;;;;;;;;;;5092692;28;20470;-65
2022/03/28 00:51:53;;;;;;;19.75;14.98;;;;;;;;;;5092887;28;20028;-65
2022/03/28 00:54:19;;;;;;;20.20;15.85;;;;;;;;;;5093060;28;20035;-65
2022/03/28 00:56:47;;;;;;;20.40;15.88;;;307.60;1766.40;;;;;;5093060;28;20016;-65
2022/03/28 00:59:13;;;;;;;18.80;14.93;;;307.60;1766.40;;;;;;5092660;28;20027;-65
2022/03/28 01:01:39;;;;;;;18.63;14.10;;;;;;;;;;5091617;28;20031;-65
2022/03/28 01:04:07;;;;;;;23.90;16.30;;;;;;;;;;5092775;28;20024;-66
2022/03/28 01:06:35;;;;;;;25.67;16.10;;;308.10;1715.20;;;;;;5092826;28;20477;-65
2022/03/28 01:09:01;;;;;;;19.52;15.55;;;333.00;1715.20;;;;;;5092709;28;20531;-65
2022/03/28 01:11:28;;;;;;;24.60;18.05;;;;;;;;;;5092849;28;20024;-65
2022/03/28 01:13:54;;;;;;;23.05;17.25;;;;;;;;;;5092627;28;20024;-65
2022/03/28 01:16:21;;;;;;;25.52;19.27;;;;;;;;;;5092711;28;20078;-65
2022/03/28 01:18:47;;;;;;;19.52;14.82;;;;;;;;;;5092233;28;20465;-65
2022/03/28 01:21:14;;;;;;;19.95;13.57;;;;;;;;;;5092610;28;20028;-66
2022/03/28 01:23:40;;;;;;;21.08;14.07;;;;;;;;;;5092770;28;20047;-64
2022/03/28 01:26:08;;;;;;;22.95;15.35;;;;;;;;;;5092242;28;20041;-64
2022/03/28 01:28:35;;;;;;;21.85;14.63;;;;;;;;;;5092807;28;20078;-65
2022/03/28 01:31:02;;;;;;;22.63;15.02;;;;;;;;;;5092796;28;20026;-70
2022/03/28 01:33:28;;;;;;;19.90;13.52;;;;;;;;;;5092606;28;20024;-65
2022/03/28 01:35:53;;;;;;;20.05;13.30;;;307.50;1740.80;;;;;;5092844;28;20039;-65
2022/03/28 01:38:20;;;;;;;18.75;12.32;;;307.40;1740.80;;;;;;5092584;28;20028;-64
2022/03/28 01:40:51;;;;;;;23.65;13.52;;;307.30;1766.40;;;;;;5092772;28;20039;-65
2022/03/28 01:43:17;;;;;;;22.10;14.83;;;282.50;1792.00;;;;;;5092532;28;20035;-68
2022/03/28 01:45:44;;;;;;;24.20;15.63;;;;;;;;;;5092726;28;20076;-69
2022/03/28 01:48:10;;;;;;;25.80;17.05;;;;;;;;;;5092448;28;20036;-65
2022/03/28 01:50:37;;;;;;;26.45;15.93;;;;;;;;;;5091053;28;20156;-66
2022/03/28 01:53:03;;;;;;;26.30;16.90;;;;;;;;;;5092587;28;20039;-66
2022/03/28 01:55:30;;;;;;;22.80;15.32;;;;;;;;;;5092539;28;20028;-67
2022/03/28 01:57:56;;;;;;;19.48;13.02;;;;;;;;;;5092436;28;20034;-67
2022/03/28 02:00:25;;;;;;;20.92;13.80;;;282.20;1817.60;;;;;;5092616;28;20500;-66
2022/03/28 02:02:51;;;;;;;16.67;12.98;;;;;;;;;;5092426;28;20024;-66
2022/03/28 02:05:18;;;;;;;20.77;13.15;;;;;;;;;;5092407;28;20016;-71
2022/03/28 02:07:46;;;;;;;16.40;12.02;;;;;;;;;;5092440;28;20039;-67
2022/03/28 02:10:14;;;;;;;18.80;13.55;;;;;;;;;;5092541;28;20019;-67
2022/03/28 02:12:41;;;;;;;19.23;15.55;;;;;;;;;;5092449;28;20020;-68
2022/03/28 02:15:07;;;;;;;22.77;14.32;;;;;;;;;;5092027;28;20024;-72
2022/03/28 02:17:34;;;;;;;17.55;12.30;;;;;;;;;;5091884;28;20056;-72
2022/03/28 02:20:00;;;;;;;18.75;12.48;;;;;;;;;;5092120;28;20366;-65
2022/03/28 02:22:27;;;;;;;20.00;11.70;;;;;;;;;;5091951;28;20035;-66
2022/03/28 02:24:53;;;;;;;19.83;14.18;;;;;;;;;;5090820;28;20048;-67
2022/03/28 02:27:19;;;;;;;19.50;13.07;;;;;;;;;;5091579;28;20098;-70
2022/03/28 02:29:45;;;;;;;19.20;12.27;;;;;;;;;;5093087;28;20032;-65
2022/03/28 02:32:12;;;;;;;17.40;12.40;;;;;;;;;;5095708;28;20028;-65
2022/03/28 02:34:38;;;;;;;25.85;16.42;;;282.00;1843.20;;;;;;5095749;28;20051;-65
2022/03/28 02:37:04;;;;;;;24.50;14.68;;;282.00;1945.60;;;;;;5095746;28;20059;-65
2022/03/28 02:39:30;;;;;;;17.30;11.68;;;282.10;1843.20;;;;;;5095487;28;20024;-65
2022/03/28 02:41:56;;;;;;;17.23;12.13;;;282.00;1843.20;;;;;;5095896;28;20035;-66
2022/03/28 02:44:22;;;;;;;34.83;21.27;;;;;;;;;;5095338;28;20028;-72
2022/03/28 02:46:49;;;;;;;26.35;16.95;;;;;;;;;;5094174;28;20032;-67
2022/03/28 02:49:15;;;;;;;47.13;29.50;;;;;;;;;;5095242;28;20028;-66
2022/03/28 02:51:42;;;;;;;18.92;12.95;;;;;;;;;;5095693;28;20012;-67
2022/03/28 02:54:08;;;;;;;19.70;14.70;;;;;;;;;;5095364;28;20449;-72
2022/03/28 02:56:34;;;;;;;24.50;13.25;;;282.40;1766.40;;;;;;5095246;28;20054;-71
2022/03/28 02:59:00;;;;;;;35.90;14.18;;;282.10;1792.00;;;;;;5095152;28;20064;-72
2022/03/28 03:01:26;;;;;;;21.02;12.20;;;282.00;1817.60;;;;;;5095348;28;20024;-72
2022/03/28 03:03:52;;;;;;;18.52;12.73;;;281.70;2278.40;;;;;;5095012;28;20023;-67
2022/03/28 03:06:18;;;;;;;18.27;11.90;;;;;;;;;;5095575;28;20024;-66
2022/03/28 03:08:44;;;;;;;20.60;13.13;;;;;;;;;;5095402;28;20028;-66
2022/03/28 03:11:10;;;;;;;19.45;14.23;;;256.80;1868.80;;;;;;5095316;28;20020;-65
2022/03/28 03:13:37;;;;;;;20.58;15.75;;;256.90;1894.40;;;;;;5095236;28;20020;-67
2022/03/28 03:16:04;;;;;;;16.42;12.07;;;;;;;;;;5095424;28;20463;-66
2022/03/28 03:18:30;;;;;;;22.45;13.27;;;;;;;;;;5095138;28;20020;-66
2022/03/28 03:20:56;;;;;;;23.15;13.63;;;256.80;1868.80;;;;;;5095356;28;20153;-68
2022/03/28 03:23:22;;;;;;;19.65;12.65;;;256.70;1894.40;;;;;;5095211;28;20020;-66
2022/03/28 03:25:49;;;;;;;18.95;12.30;;;;;;;;;;5094920;28;20054;-67
2022/03/28 03:28:16;;;;;;;24.40;13.77;;;;;;;;;;5094954;28;20115;-69
2022/03/28 03:30:42;;;;;;;25.98;13.32;;;;;;;;;;5095037;28;20481;-70
2022/03/28 03:33:08;;;;;;;20.30;14.63;;;;;;;;;;5094670;28;20031;-69
2022/03/28 03:35:34;;;;;;;24.70;14.20;;;;;;;;;;5094907;28;20031;-71
2022/03/28 03:38:01;;;;;;;24.30;15.18;;;;;;;;;;5094707;28;20126;-67
2022/03/28 03:40:26;;;;;;;24.38;16.02;;;256.40;1945.60;;;;;;5094127;28;20020;-68
2022/03/28 03:42:52;;;;;;;27.10;16.23;;;256.20;1996.80;;;;;;5093083;28;20421;-67
2022/03/28 03:45:18;;;;;;;21.40;15.32;;;;;;;;;;5094296;28;20032;-71
2022/03/28 03:47:44;;;;;;;19.58;15.45;;;;;;;;;;5094106;28;20038;-66
2022/03/28 03:50:11;;;;;;;20.40;14.07;;;256.50;1996.80;;;;;;5092489;28;20469;-67
2022/03/28 03:52:37;;;;;;;19.08;13.20;;;;;;;;;;5094176;28;20020;-67
2022/03/28 03:55:04;;;;;;;32.45;17.40;;;;;;;;;;5093755;28;20028;-66
2022/03/28 03:57:31;;;;;;;19.20;13.63;;;;;;;;;;5092786;28;20078;-70
2022/03/28 03:59:57;;;;;;;28.55;15.50;;;;;;;;;;5094003;28;20031;-69
2022/03/28 04:02:23;;;;;;;19.83;13.20;;;;;;;;;;5094004;28;20024;-71
2022/03/28 04:04:49;;;;;;;23.85;14.25;;;;;;;;;;5092480;28;20024;-72
2022/03/28 04:07:15;;;;;;;20.20;13.45;;;256.70;1971.20;;;;;;5093868;28;20503;-71
2022/03/28 04:09:41;;;;;;;21.15;13.07;;;256.50;1996.80;;;;;;5093928;28;20051;-71
2022/03/28 04:12:08;;;;;;;23.73;14.02;;;256.50;1996.80;;;;;;5093736;28;20469;-68
2022/03/28 04:14:34;;;;;;;26.90;16.42;;;256.70;1971.20;;;;;;5093816;28;20016;-68
2022/03/28 04:17:00;;;;;;;33.85;14.73;;;;;;;;;;5093547;28;20020;-68
2022/03/28 04:19:26;;;;;;;22.63;16.00;;;;;;;;;;5093347;28;20081;-71
2022/03/28 04:21:52;;;;;;;27.55;17.80;;;;;;;;;;5093627;28;20079;-71
2022/03/28 04:24:20;;;;;;;26.25;17.77;;;;;;;;;;5093554;28;20025;-67
2022/03/28 04:26:46;;;;;;;26.95;17.67;;;;;;;;;;5093077;28;20051;-71
2022/03/28 04:29:13;;;;;;;33.15;19.05;;;;;;;;;;5093347;28;20047;-68
2022/03/28 04:31:40;;;;;;;44.45;19.40;;;;;;;;;;5093643;28;20028;-67
2022/03/28 04:34:07;;;;;;;48.30;19.63;;;;;;;;;;5093711;28;20043;-70
2022/03/28 04:36:33;;;;;;;30.95;19.15;;;;;;;;;;5092297;28;20035;-67
2022/03/28 04:38:59;;;;;;;31.90;18.63;;;;;;;;;;5093431;28;20031;-71
2022/03/28 04:41:25;;;;;;;33.50;18.30;;;;;;;;;;5093485;28;20026;-69
2022/03/28 04:43:51;;;;;;;26.67;18.00;;;;;;;;;;5093537;28;20016;-69
2022/03/28 04:46:18;;;;;;;34.35;22.10;;;;;;;;;;5093241;28;20024;-71
2022/03/28 04:48:44;;;;;;;20.88;15.60;;;;;;;;;;5093319;28;20060;-67
2022/03/28 04:51:10;;;;;;;24.17;16.63;;;;;;;;;;5092636;28;20031;-69
2022/03/28 04:53:36;;;;;;;24.15;15.65;;;;;;;;;;5092843;28;20028;-69
2022/03/28 04:56:02;;;;;;;25.80;17.70;;;;;;;;;;5093070;28;20369;-68
2022/03/28 04:58:28;;;;;;;26.10;17.05;;;;;;;;;;5092945;28;20024;-71
2022/03/28 05:00:54;;;;;;;35.00;18.05;;;;;;;;;;5092824;28;20028;-68
2022/03/28 05:03:20;;;;;;;28.25;16.90;;;;;;;;;;5092577;28;20031;-71
2022/03/28 05:05:47;;;;;;;36.33;20.02;;;;;;;;;;5092627;28;20023;-68
2022/03/28 05:08:12;;;;;;;36.92;22.48;;;256.80;1996.80;;;;;;5092483;28;20489;-71
2022/03/28 05:10:38;;;;;;;24.17;15.75;;;256.70;1996.80;;;;;;5092889;28;20024;-68
2022/03/28 05:13:04;;;;;;;24.02;17.20;;;281.60;1996.80;;;;;;5092644;28;20047;-70
2022/03/28 05:15:31;;;;;;;42.63;24.73;;;281.70;1971.20;;;;;;5092555;28;20103;-72
2022/03/28 05:17:58;;;;;;;37.63;20.63;;;281.60;1996.80;;;;;;5089640;28;20156;-67
2022/03/28 05:20:24;;;;;;;34.58;24.13;;;;;;;;;;5078470;28;20371;-70
2022/03/28 05:22:50;;;;;;;42.55;22.10;;;;;;;;;;5071760;28;20031;-69
2022/03/28 05:25:16;;;;;;;40.28;22.83;;;;;;;;;;5072437;28;20032;-69
2022/03/28 05:27:47;;;;;;;31.30;20.08;;;282.00;1945.60;;;;;;5072706;28;20464;-69
2022/03/28 05:30:13;;;;;;;36.78;21.60;;;;;;;;;;5072721;28;20103;-69
2022/03/28 05:32:39;;;;;;;38.22;20.40;;;;;;;;;;5072750;28;20052;-69
2022/03/28 05:35:06;;;;;;;37.58;21.10;;;;;;;;;;5072665;28;20032;-70
2022/03/28 05:37:32;;;;;;;32.13;17.65;;;;;;;;;;5072803;28;20029;-70
2022/03/28 05:39:58;;;;;;;46.30;20.60;;;;;;;;;;5072597;28;20033;-70
2022/03/28 05:42:24;;;;;;;39.55;20.90;;;;;;;;;;5072684;28;20021;-69
2022/03/28 05:44:50;;;;;;;38.90;20.60;;;;;;;;;;5072638;28;20042;-69
2022/03/28 05:47:16;;;;;;;41.65;21.75;;;;;;;;;;5072509;28;20029;-69
2022/03/28 05:49:42;;;;;;;35.13;21.25;;;;;;;;;;5073089;28;20021;-69
2022/03/28 05:52:08;;;;;;;41.30;22.63;;;;;;;;;;5072523;28;20375;-68
2022/03/28 05:54:35;;;;;;;33.58;19.10;;;;;;;;;;5072721;28;20027;-68
2022/03/28 05:57:01;;;;;;;30.27;18.52;;;;;;;;;;5071259;28;20029;-68
2022/03/28 05:59:27;;;;;;;27.88;18.70;;;;;;;;;;5072613;28;20028;-69
2022/03/28 06:01:54;;;;;;;25.75;19.17;;;;;;;;;;5072151;28;20035;-68
2022/03/28 06:04:20;;;;;;;28.77;19.58;;;;;;;;;;5074619;28;20390;-69
2022/03/28 06:06:46;;;;;;;38.90;20.77;;;307.20;1971.20;;;;;;5076378;28;20394;-69
2022/03/28 06:09:12;;;;;;;29.30;19.45;;;307.20;1971.20;;;;;;5076275;28;20050;-69
2022/03/28 06:11:38;;;;;;;33.60;23.73;;;;;;;;;;5076442;28;20432;-69
2022/03/28 06:14:04;;;;;;;40.97;30.20;;;;;;;;;;5076363;28;20390;-70
2022/03/28 06:16:30;;;;;;;39.45;19.80;;;;;;;;;;5076024;28;20153;-68
2022/03/28 06:18:56;;;;;;;43.60;19.05;;;;;;;;;;5076213;28;20024;-69
2022/03/28 06:21:23;;;;;;;33.55;20.23;;;;;;;;;;5075960;28;20024;-68
2022/03/28 06:23:49;;;;;;;30.33;19.95;;;;;;;;;;5076176;28;20390;-69
2022/03/28 06:26:16;;;;;;;39.83;20.58;;;;;;;;;;5075634;28;20052;-68
2022/03/28 06:28:42;;;;;;;37.17;24.52;;;;;;;;;;5076010;28;20440;-68
2022/03/28 06:31:09;;;;;;;29.73;20.42;;;;;;;;;;5075956;28;20378;-69
2022/03/28 06:33:35;;;;;;;30.42;20.88;;;;;;;;;;5075866;28;20081;-69
2022/03/28 06:36:01;;;;;;;22.63;16.42;;;333.50;1843.20;;;;;;5075790;28;20096;-69
2022/03/28 06:38:27;;;;;;;44.83;32.40;;;333.40;1894.40;;;;;;5075784;28;20077;-69
2022/03/28 06:40:53;;;;;;;27.15;19.77;;;333.50;1817.60;;;;;;5075693;28;20032;-69
2022/03/28 06:43:19;;;;;;;26.73;19.63;;;;;;;;;;5075752;28;20024;-68
2022/03/28 06:45:45;;;;;;;33.75;22.50;;;;;;;;;;5075609;28;20093;-69
2022/03/28 06:48:12;;;;;;;30.40;19.90;;;;;;;;;;5075192;28;20028;-70
2022/03/28 06:50:38;;;;;;;27.15;19.92;;;;;;;;;;5082441;28;20032;-70
2022/03/28 06:53:04;;;;;;;30.88;20.95;;;;;;;;;;5095834;28;20028;-68
2022/03/28 06:55:30;;;;;;;29.05;20.55;;;359.20;1689.60;;;;;;5095786;28;20103;-69
2022/03/28 06:57:55;;;;;;;36.92;19.73;;;359.20;1689.60;;;;;;5095677;28;20116;-69
2022/03/28 07:00:21;;;;;;;48.47;29.17;;;384.10;1689.60;;;;;;5095898;28;20352;-66
2022/03/28 07:02:48;;;;;;;24.83;19.02;;;384.30;1689.60;;;;;;5095681;28;20026;-67
2022/03/28 07:05:15;;;;;;;27.17;18.63;;;384.40;1664.00;;;;;;5095385;28;20103;-68
2022/03/28 07:07:49;;;;;;;24.17;17.15;;;384.60;1664.00;;;;;;5095492;28;20028;-68
2022/03/28 07:10:16;;;;;;;25.83;15.65;;;384.90;1638.40;;;;;;5095206;28;20024;-68
2022/03/28 07:12:43;;;;;;;37.97;23.33;;;;;;;;;;5095403;28;20016;-68
2022/03/28 07:15:10;;;;;;;45.15;25.45;;;;;;;;;;5094832;28;20486;-67
2022/03/28 07:17:54;;;;;;;48.72;28.23;;;;;;;;;;5095216;28;20031;-67
2022/03/28 07:20:24;;;;;;;45.45;27.75;;;;;;;;;;5095237;28;20107;-67
2022/03/28 07:22:51;;;;;;;38.70;23.67;;;410.20;1817.60;;;;;;5095072;28;20024;-67
2022/03/28 07:25:16;;;;;;;43.55;22.17;;;410.20;1817.60;;;;;;5094970;28;20024;-67
2022/03/28 07:27:42;;;;;;;29.08;18.85;;;410.30;1561.60;;;;;;5095161;28;20389;-67
2022/03/28 07:30:09;;;;;;;35.95;25.48;;;410.40;1536.00;;;;;;5095273;28;20407;-67
2022/03/28 07:32:37;;;;;;;47.92;26.48;;;410.30;1561.60;;;;;;5094675;28;20035;-67
2022/03/28 07:35:03;;;;;;;32.53;19.33;;;410.40;1561.60;;;;;;5094937;28;20059;-67
2022/03/28 07:37:29;;;;;;;26.70;18.88;;;410.50;1536.00;;;;;;5074789;28;20025;-67
2022/03/28 07:39:56;;;;;;;22.80;18.25;;;435.20;1510.40;;;;;;5074626;28;20463;-67
2022/03/28 07:42:22;;;;;;;28.80;18.73;;;435.30;1561.60;;;;;;5074713;28;20497;-67
2022/03/28 07:44:48;;;;;;;26.15;18.30;;;435.30;1561.60;;;;;;5074241;28;20024;-68
2022/03/28 07:47:14;;;;;;;32.65;18.38;;;;;;;;;;5076278;28;20036;-68
2022/03/28 07:49:40;;;;;;;26.38;18.15;;;;;;;;;;5073867;28;20017;-68
2022/03/28 07:52:08;;;;;;;30.20;17.48;;;;;;;;;;5076802;28;20027;-68
2022/03/28 07:54:34;;;;;;;27.05;11.98;;;;;;;;;;5073680;28;20016;-67
2022/03/28 07:57:00;;;;;;;24.75;16.00;;;;;;;;;;5073641;28;20053;-67
2022/03/28 07:59:27;;;;;;;26.77;16.20;;;;;;;;;;5073658;28;20036;-67
2022/03/28 08:01:53;;;;;;;34.05;19.48;;;;;;;;;;5076406;28;20017;-67
2022/03/28 08:04:19;;;;;;;25.23;16.70;;;;;;;;;;5076304;28;20040;-67
2022/03/28 08:06:46;;;;;;;21.38;15.25;;;;;;;;;;5076117;28;20079;-68
2022/03/28 08:09:12;;;;;;;28.15;17.70;;;;;;;;;;5073536;28;20086;-66
2022/03/28 08:11:38;;;;;;;38.50;15.50;;;;;;;;;;5074039;28;20032;-66
2022/03/28 08:14:04;;;;;;;21.00;13.98;;;;;;;;;;5074080;28;20482;-64
2022/03/28 08:16:31;;;;;;;28.38;15.00;;;461.50;1356.80;;;;;;5073844;28;20048;-64
2022/03/28 08:18:57;;;;;;;24.05;14.88;;;461.50;1331.20;;;;;;5073639;28;20474;-65
2022/03/28 08:21:23;;;;;;;26.13;13.57;;;461.70;1331.20;;;;;;5073690;28;20040;-65
2022/03/28 08:23:49;;;;;;;21.08;13.20;;;486.40;1331.20;;;;;;5073871;28;20028;-65
2022/03/28 08:26:15;;;;;;;17.52;11.27;;;;;;;;;;5073552;28;20056;-64
2022/03/28 08:28:42;;;;;;;17.00;11.23;;;486.80;1280.00;;;;;;5072989;28;20154;-64
2022/03/28 08:31:08;;;;;;;24.42;12.90;;;486.90;1280.00;;;;;;5073405;28;20020;-65
2022/03/28 08:33:34;;;;;;;23.00;13.52;;;487.00;1280.00;;;;;;5073517;28;20024;-65
2022/03/28 08:36:00;;;;;;;25.70;11.82;;;487.30;1280.00;;;;;;5073763;28;20028;-64
2022/03/28 08:38:26;;;;;;;18.27;11.93;;;487.20;1280.00;;;;;;5073262;28;20030;-64
2022/03/28 08:40:52;;;;;;;15.93;12.45;;;;;;;;;;5073494;28;20367;-64
2022/03/28 08:43:19;;;;;;;19.58;10.63;;;;;;;;;;5073297;28;20123;-64
2022/03/28 08:45:45;;;;;;;13.02;9.85;;;;;;;;;;5073914;28;20027;-64
2022/03/28 08:48:13;;;;;;;15.07;9.95;;;;;;;;;;5073184;28;20058;-64
2022/03/28 08:50:41;;;;;;;17.27;9.55;;;;;;;;;;5073685;28;20024;-64
2022/03/28 08:53:07;;;;;;;12.48;8.90;;;;;;;;;;5073382;28;20021;-63
2022/03/28 08:55:33;;;;;;;14.80;8.00;;;;;;;;;;5073348;28;20093;-64
2022/03/28 08:57:59;;;;;;;14.90;9.98;;;537.90;1177.60;;;;;;5073074;28;20033;-64
2022/03/28 09:00:25;;;;;;;12.88;8.93;;;538.10;1177.60;;;;;;5073049;28;20027;-64
2022/03/28 09:02:56;;;;;;;13.20;9.10;;;538.10;1177.60;;;;;;5072761;28;20016;-65
2022/03/28 09:05:34;;;;;;;19.63;11.00;;;538.30;1203.20;;;;;;5073018;28;20167;-65
2022/03/28 09:08:01;;;;;;;20.63;11.68;;;;;;;;;;5073051;28;20118;-65
2022/03/28 09:10:28;;;;;;;20.98;12.40;;;;;;;;;;5073139;28;20035;-65
2022/03/28 09:13:03;;;;;;;14.15;9.50;;;;;;;;;;5073033;28;20021;-65
2022/03/28 09:15:48;;;;;;;23.20;9.55;;;;;;;;;;5072768;28;20017;-64
2022/03/28 09:18:24;;;;;;;32.03;21.13;;;;;;;;;;5072644;28;20024;-66
2022/03/28 09:20:51;;;;;;;15.20;7.97;;;;;;;;;;5073072;28;20059;-64
2022/03/28 09:23:36;;;;;;;12.20;7.18;;;;;;;;;;5072898;28;20378;-65
2022/03/28 09:26:08;;;;;;;12.57;7.00;;;;;;;;;;5072464;28;20136;-65
2022/03/28 09:28:46;;;;;;;23.45;11.07;;;;;;;;;;5072940;28;20083;-64
2022/03/28 09:31:17;;;;;;;12.98;7.70;;;589.70;1049.60;;;;;;5072751;28;20024;-68
2022/03/28 09:34:03;;;;;;;18.05;8.75;;;589.70;1049.60;;;;;;5072644;28;20070;-68
2022/03/28 09:36:35;;;;;;;13.93;9.30;;;;;;;;;;5072578;28;20566;-69
2022/03/28 09:39:02;;;;;;;15.32;8.57;;;614.80;1024.00;;;;;;5071018;28;20028;-76
2022/03/28 09:41:29;;;;;;;11.93;7.35;;;640.90;972.80;;;;;;5072568;28;20487;-65
2022/03/28 09:43:55;;;;;;;9.88;8.23;;;742.50;870.40;;;;;;5072744;28;20032;-68
2022/03/28 09:46:28;;;;;;;19.35;12.15;;;;;;;;;;5072419;28;20032;-67
2022/03/28 09:48:57;;;;;;;12.48;8.18;;;;;;;;;;5072445;28;20036;-72
2022/03/28 09:51:29;;;;;;;13.40;8.18;;;871.00;691.20;;;;;;5072999;28;20032;-68
2022/03/28 09:53:55;;;;;;;10.55;7.53;;;922.20;665.60;;;;;;5072461;28;20054;-66
2022/03/28 09:56:21;;;;;;;11.55;8.13;;;;;;;;;;5072761;28;20031;-66
2022/03/28 09:58:49;;;;;;;12.88;7.72;;;;;;;;;;5071153;28;20089;-66
2022/03/28 10:01:20;;;;;;;14.55;8.73;;;;;;;;;;5072333;28;20017;-67
2022/03/28 10:03:46;;;;;;;;;;;;;;;;;;5072699;28;20039;-66
2022/03/28 10:06:12;;;;;;;8.60;7.10;;;;;;;;;;5072407;28;19909;-67
2022/03/28 10:08:38;;;;;;;11.40;8.73;;;;;;;;;;5072076;28;20038;-67
2022/03/28 10:11:05;;;;;;;9.57;7.28;;;;;;;;;;5072234;28;20033;-66
2022/03/28 10:13:31;;;;;;;11.13;8.60;;;;;;;;;;5072240;28;20027;-66
2022/03/28 10:15:58;;;;;;;14.85;7.93;;;;;;;;;;5072501;28;20021;-66
2022/03/28 10:18:27;;;;;;;10.75;7.57;;;;;;;;;;5072230;28;20030;-66
2022/03/28 10:20:54;;;;;;;36.63;11.37;;;;;;;;;;5072455;28;20035;-67
2022/03/28 10:23:23;;;;;;;16.45;8.82;;;999.20;614.40;;;;;;5072335;28;20025;-69
2022/03/28 10:25:52;;;;;;;16.67;8.32;;;998.70;640.00;;;;;;5072123;28;20106;-66
2022/03/28 10:28:19;;;;;;;19.98;8.35;;;998.80;614.40;;;;;;5072237;28;20457;-66
2022/03/28 10:30:46;;;;;;;11.30;8.55;;;998.80;588.80;;;;;;5072195;28;20017;-71
2022/03/28 10:33:14;;;;;;;11.52;8.13;;;;;;;;;;5071852;28;20467;-67
2022/03/28 10:35:54;;;;;;;17.38;9.95;;;;;;;;;;5071719;28;20017;-68
2022/03/28 10:38:22;;;;;;;14.50;9.07;;;;;;;;;;5071514;28;20021;-66
2022/03/28 10:41:00;;;;;;;9.20;7.53;;;;;;;;;;5072197;28;20032;-68
2022/03/28 10:43:28;;;;;;;10.45;7.57;;;;;;;;;;5072377;28;20441;-68
2022/03/28 10:45:56;;;;;;;9.15;7.00;;;;;;;;;;5072388;28;20109;-66
2022/03/28 10:48:48;;;;;;;10.85;7.07;;;1050.30;563.20;;;;;;5071788;28;20033;-68
2022/03/28 10:51:19;;;;;;;9.07;7.82;;;;;;;;;;5072369;28;20060;-66
2022/03/28 10:54:05;;;;;;;9.88;7.53;;;;;;;;;;5075581;28;20032;-66
2022/03/28 10:56:32;;;;;;;10.57;7.47;;;;;;;;;;5075229;28;20033;-68
2022/03/28 10:59:09;;;;;;;15.63;8.23;;;1101.10;512.00;;;;;;5075575;28;20024;-78
2022/03/28 11:01:35;;;;;;;12.60;7.97;;;;;;;;;;5075298;28;20028;-68
2022/03/28 11:04:23;;;;;;;11.10;7.78;;;;;;;;;;5075170;28;20016;-68
2022/03/28 11:06:59;;;;;;;11.70;7.97;;;1076.10;537.60;;;;;;5075694;28;20016;-68
2022/03/28 11:09:34;;;;;;;11.18;7.53;;;;;;;;;;5075210;28;20032;-67
2022/03/28 11:12:04;;;;;;;9.13;8.23;;;;;;;;;;5075446;28;20021;-68
2022/03/28 11:14:53;;;;;;;11.63;7.93;;;1076.10;537.60;;;;;;5075161;28;20078;-68
2022/03/28 11:17:22;;;;;;;11.82;9.55;;;;;;;;;;5074908;28;20086;-68
2022/03/28 11:20:00;;;;;;;13.70;8.88;;;;;;;;;;5074811;28;20028;-68
2022/03/28 11:23:01;;;;;;;13.38;9.18;;;;;;;;;;5074841;28;20082;-68
2022/03/28 11:25:27;;;;;;;13.18;8.52;;;1076.10;512.00;;;;;;5032380;28;20053;-73
2022/03/28 11:28:06;;;;;;;15.15;9.60;;;1075.20;537.60;;;;;;5032626;28;20415;-73
2022/03/28 11:30:35;;;;;;;12.57;7.70;;;1075.30;537.60;;;;;;5032617;28;20056;-67
2022/03/28 11:33:06;;;;;;;16.33;9.10;;;;;;;;;;5032716;28;20575;-67
2022/03/28 11:35:32;;;;;;;12.18;8.13;;;;;;;;;;5032664;28;20125;-68
2022/03/28 11:37:59;;;;;;;18.17;8.23;;;;;;;;;;5032521;28;20033;-68
2022/03/28 11:40:36;;;;;;;15.90;12.75;;;;;;;;;;5032395;28;20057;-68
2022/03/28 11:43:02;;;;;;;13.20;9.38;;;;;;;;;;5032486;28;20049;-68
2022/03/28 11:45:29;;;;;;;14.55;9.02;;;;;;;;;;5032451;28;20036;-68
2022/03/28 11:47:58;;;;;;;19.00;10.35;;;973.10;614.40;;;;;;5032334;28;20038;-68
2022/03/28 11:50:28;;;;;;;8.60;7.55;;;;;;;;;;5032389;28;20036;-67
2022/03/28 11:52:54;;;;;;;9.93;8.80;;;;;;;;;;5032201;28;20160;-68
2022/03/28 11:55:24;;;;;;;11.02;9.02;;;947.60;588.80;;;;;;5032006;28;20045;-66
2022/03/28 12:00:38;;;;;;;14.02;9.10;;;;;;;;;;5074193;28;20044;-65
2022/03/28 12:03:04;;;;;;;11.27;7.50;;;;;;;;;;5073816;28;20157;-65
2022/03/28 12:05:30;;;;;;;14.45;9.75;;;;;;;;;;5073970;28;20021;-66
2022/03/28 12:07:57;;;;;;;14.80;9.52;;;921.70;640.00;;;;;;5072475;28;20115;-66
2022/03/28 12:10:32;;;;;;;18.00;10.35;;;896.70;665.60;;;;;;5073855;28;20029;-66
2022/03/28 12:12:59;;;;;;;17.33;10.65;;;;;;;;;;5073819;28;20114;-65
2022/03/28 12:15:27;;;;;;;8.77;7.38;;;;;;;;;;5073794;28;20070;-65
2022/03/28 12:17:53;;;;;;;20.20;11.90;;;;;;;;;;5073757;28;20099;-66
2022/03/28 12:20:22;;;;;;;15.27;8.25;;;;;;;;;;5073507;28;20436;-65
2022/03/28 12:22:48;;;;;;;10.38;8.65;;;;;;;;;;5073700;28;20024;-66
2022/03/28 12:25:28;;;;;;;11.13;7.82;;;;;;;;;;5073562;28;20024;-66
2022/03/28 12:27:55;;;;;;;8.75;7.38;;;;;;;;;;5073628;28;20044;-66
2022/03/28 12:30:32;;;;;;;9.48;7.47;;;871.00;691.20;;;;;;5073892;28;20040;-66
2022/03/28 12:33:03;;;;;;;10.38;8.00;;;;;;;;;;5073230;28;20498;-67
2022/03/28 12:35:29;;;;;;;15.55;8.65;;;;;;;;;;5073485;28;20029;-65
2022/03/28 12:38:04;;;;;;;14.15;8.00;;;;;;;;;;5073339;28;20024;-66
2022/03/28 12:40:31;;;;;;;14.43;8.30;;;;;;;;;;5073627;28;20020;-66
2022/03/28 12:42:59;;;;;;;9.02;7.63;;;;;;;;;;5073375;28;20044;-66
2022/03/28 12:45:26;;;;;;;10.65;7.18;;;;;;;;;;5073336;28;20017;-66
2022/03/28 12:47:55;;;;;;;14.07;9.57;;;;;;;;;;5072953;28;20037;-66
2022/03/28 12:50:26;;;;;;;9.43;7.50;;;;;;;;;;5073214;28;20428;-66
2022/03/28 12:52:53;;;;;;;11.00;8.07;;;;;;;;;;5073257;28;20363;-66
2022/03/28 12:55:26;;;;;;;15.68;10.15;;;819.60;716.80;;;;;;5073240;28;20032;-66
2022/03/28 12:57:52;;;;;;;25.13;9.82;;;;;;;;;;5073132;28;20063;-67
2022/03/28 13:00:25;;;;;;;31.20;10.73;;;;;;;;;;5073128;28;20024;-66
2022/03/28 13:02:52;;;;;;;34.63;11.35;;;793.90;768.00;;;;;;5073149;28;20020;-66
2022/03/28 13:05:18;;;;;;;15.88;10.60;;;;;;;;;;5073098;28;20012;-66
2022/03/28 13:07:45;;;;;;;20.98;10.15;;;;;;;;;;5073039;28;20128;-66
2022/03/28 13:10:16;;;;;;;13.50;8.98;;;;;;;;;;5073589;28;20432;-66
2022/03/28 13:12:44;;;;;;;17.48;9.30;;;;;;;;;;5072929;28;20107;-65
2022/03/28 13:15:18;;;;;;;22.45;10.68;;;;;;;;;;5072685;28;20429;-72
2022/03/28 13:17:44;;;;;;;16.17;8.95;;;;;;;;;;5072884;28;20060;-65
2022/03/28 13:20:17;;;;;;;13.98;8.80;;;;;;;;;;5073014;28;20021;-65
2022/03/28 13:22:45;;;;;;;10.82;8.75;;;;;;;;;;5073365;28;20036;-75
2022/03/28 13:25:16;;;;;;;16.25;11.23;;;717.10;819.20;;;;;;5072428;28;20032;-66
2022/03/28 13:30:28;;;;;;;13.68;8.90;;;717.00;819.20;;;;;;5072766;28;20489;-71
2022/03/28 13:32:56;;;;;;;18.38;9.63;;;716.80;819.20;;;;;;5072789;28;20474;-77
2022/03/28 13:35:22;;;;;;;14.57;9.27;;;692.10;819.20;;;;;;5072920;28;20475;-77
2022/03/28 13:38:10;;;;;;;17.50;8.05;;;691.90;870.40;;;;;;5072534;28;20021;-69